sensor_id;sensor_type;location;lat;lon;timestamp;P1;durP1;ratioP1;P2;durP2;ratioP2
16440;SDS011;8330;-33.858;151.184;2023-12-22T00:01:49;7.50;;;1.48;;
16440;SDS011;8330;-33.858;151.184;2023-12-22T00:04:20;7.57;;;1.35;;
16440;SDS011;8330;-33.858;151.184;2023-12-22T00:06:51;7.82;;;1.60;;
16440;SDS011;8330;-33.858;151.184;2023-12-22T00:09:23;6.50;;;1.30;;
16440;SDS011;8330;-33.858;151.184;2023-12-22T00:11:54;6.82;;;1.40;;
16440;SDS011;8330;-33.858;151.184;2023-12-22T00:14:25;6.82;;;1.58;;
16440;SDS011;8330;-33.858;151.184;2023-12-22T00:16:56;7.05;;;1.38;;
16440;SDS011;8330;-33.858;151.184;2023-12-22T00:19:27;4.25;;;1.40;;
16440;SDS011;8330;-33.858;151.184;2023-12-22T00:21:58;6.70;;;1.27;;
16440;SDS011;8330;-33.858;151.184;2023-12-22T00:24:31;7.70;;;1.40;;
16440;SDS011;8330;-33.858;151.184;2023-12-22T00:27:02;6.82;;;1.25;;
16440;SDS011;8330;-33.858;151.184;2023-12-22T00:29:33;6.35;;;1.52;;
16440;SDS011;8330;-33.858;151.184;2023-12-22T00:32:04;8.48;;;1.70;;
16440;SDS011;8330;-33.858;151.184;2023-12-22T00:34:35;6.43;;;1.30;;
16440;SDS011;8330;-33.858;151.184;2023-12-22T00:37:07;5.38;;;1.27;;
16440;SDS011;8330;-33.858;151.184;2023-12-22T00:39:43;9.23;;;1.73;;
16440;SDS011;8330;-33.858;151.184;2023-12-22T00:42:13;4.50;;;1.40;;
16440;SDS011;8330;-33.858;151.184;2023-12-22T00:44:44;6.35;;;1.30;;
16440;SDS011;8330;-33.858;151.184;2023-12-22T00:47:14;5.03;;;1.33;;
16440;SDS011;8330;-33.858;151.184;2023-12-22T00:49:44;6.45;;;1.13;;
16440;SDS011;8330;-33.858;151.184;2023-12-22T00:52:15;8.70;;;1.48;;
16440;SDS011;8330;-33.858;151.184;2023-12-22T00:54:48;4.85;;;1.45;;
16440;SDS011;8330;-33.858;151.184;2023-12-22T00:57:18;4.18;;;1.25;;
16440;SDS011;8330;-33.858;151.184;2023-12-22T00:59:49;6.25;;;1.10;;
16440;SDS011;8330;-33.858;151.184;2023-12-22T01:02:20;5.28;;;1.40;;
16440;SDS011;8330;-33.858;151.184;2023-12-22T01:04:51;8.90;;;1.15;;
16440;SDS011;8330;-33.858;151.184;2023-12-22T01:07:22;5.07;;;1.30;;
16440;SDS011;8330;-33.858;151.184;2023-12-22T01:09:54;4.07;;;1.27;;
16440;SDS011;8330;-33.858;151.184;2023-12-22T01:12:27;5.60;;;1.08;;
16440;SDS011;8330;-33.858;151.184;2023-12-22T01:14:58;4.63;;;1.08;;
16440;SDS011;8330;-33.858;151.184;2023-12-22T01:17:29;5.18;;;1.23;;
16440;SDS011;8330;-33.858;151.184;2023-12-22T01:20:00;5.78;;;1.13;;
16440;SDS011;8330;-33.858;151.184;2023-12-22T01:22:31;3.53;;;0.93;;
16440;SDS011;8330;-33.858;151.184;2023-12-22T01:25:06;6.25;;;1.15;;
16440;SDS011;8330;-33.858;151.184;2023-12-22T01:27:37;4.40;;;1.13;;
16440;SDS011;8330;-33.858;151.184;2023-12-22T01:30:08;3.33;;;1.30;;
16440;SDS011;8330;-33.858;151.184;2023-12-22T01:32:39;5.32;;;1.23;;
16440;SDS011;8330;-33.858;151.184;2023-12-22T01:35:10;4.30;;;1.15;;
16440;SDS011;8330;-33.858;151.184;2023-12-22T01:37:41;5.10;;;1.00;;
16440;SDS011;8330;-33.858;151.184;2023-12-22T01:40:16;3.97;;;1.02;;
16440;SDS011;8330;-33.858;151.184;2023-12-22T01:42:47;6.60;;;1.38;;
16440;SDS011;8330;-33.858;151.184;2023-12-22T01:45:18;4.07;;;1.00;;
16440;SDS011;8330;-33.858;151.184;2023-12-22T01:47:49;3.72;;;1.35;;
16440;SDS011;8330;-33.858;151.184;2023-12-22T01:50:20;4.40;;;1.10;;
16440;SDS011;8330;-33.858;151.184;2023-12-22T01:52:51;5.97;;;1.20;;
16440;SDS011;8330;-33.858;151.184;2023-12-22T01:55:25;4.00;;;1.23;;
16440;SDS011;8330;-33.858;151.184;2023-12-22T01:57:55;7.35;;;1.27;;
16440;SDS011;8330;-33.858;151.184;2023-12-22T02:00:27;3.08;;;0.90;;
16440;SDS011;8330;-33.858;151.184;2023-12-22T02:02:58;4.97;;;1.02;;
16440;SDS011;8330;-33.858;151.184;2023-12-22T02:05:29;3.33;;;0.95;;
16440;SDS011;8330;-33.858;151.184;2023-12-22T02:08:00;2.72;;;1.25;;
16440;SDS011;8330;-33.858;151.184;2023-12-22T02:10:32;3.40;;;1.20;;
16440;SDS011;8330;-33.858;151.184;2023-12-22T02:13:03;4.80;;;1.20;;
16440;SDS011;8330;-33.858;151.184;2023-12-22T02:15:35;5.68;;;0.93;;
16440;SDS011;8330;-33.858;151.184;2023-12-22T02:18:07;4.82;;;1.42;;
16440;SDS011;8330;-33.858;151.184;2023-12-22T02:20:43;8.57;;;1.70;;
16440;SDS011;8330;-33.858;151.184;2023-12-22T02:23:16;8.60;;;1.60;;
16440;SDS011;8330;-33.858;151.184;2023-12-22T02:25:47;4.07;;;1.08;;
16440;SDS011;8330;-33.858;151.184;2023-12-22T02:28:21;6.40;;;1.15;;
16440;SDS011;8330;-33.858;151.184;2023-12-22T02:30:54;5.97;;;0.88;;
16440;SDS011;8330;-33.858;151.184;2023-12-22T02:33:31;6.22;;;1.08;;
16440;SDS011;8330;-33.858;151.184;2023-12-22T02:36:02;5.38;;;0.95;;
16440;SDS011;8330;-33.858;151.184;2023-12-22T02:38:37;7.70;;;1.48;;
16440;SDS011;8330;-33.858;151.184;2023-12-22T02:41:08;3.13;;;0.90;;
16440;SDS011;8330;-33.858;151.184;2023-12-22T02:43:39;3.67;;;1.00;;
16440;SDS011;8330;-33.858;151.184;2023-12-22T02:46:13;4.85;;;1.10;;
16440;SDS011;8330;-33.858;151.184;2023-12-22T02:48:44;7.43;;;1.27;;
16440;SDS011;8330;-33.858;151.184;2023-12-22T02:51:15;3.88;;;1.10;;
16440;SDS011;8330;-33.858;151.184;2023-12-22T02:53:48;3.50;;;0.98;;
16440;SDS011;8330;-33.858;151.184;2023-12-22T02:56:18;3.42;;;0.93;;
16440;SDS011;8330;-33.858;151.184;2023-12-22T02:58:49;2.75;;;1.08;;
16440;SDS011;8330;-33.858;151.184;2023-12-22T03:01:20;3.70;;;1.00;;
16440;SDS011;8330;-33.858;151.184;2023-12-22T03:03:51;4.25;;;1.05;;
16440;SDS011;8330;-33.858;151.184;2023-12-22T03:06:22;2.70;;;0.88;;
16440;SDS011;8330;-33.858;151.184;2023-12-22T03:08:54;5.20;;;1.33;;
16440;SDS011;8330;-33.858;151.184;2023-12-22T03:11:25;4.10;;;1.08;;
16440;SDS011;8330;-33.858;151.184;2023-12-22T03:13:56;4.18;;;0.93;;
16440;SDS011;8330;-33.858;151.184;2023-12-22T03:16:26;4.68;;;1.17;;
16440;SDS011;8330;-33.858;151.184;2023-12-22T03:18:57;4.32;;;1.00;;
16440;SDS011;8330;-33.858;151.184;2023-12-22T03:21:28;2.53;;;0.95;;
16440;SDS011;8330;-33.858;151.184;2023-12-22T03:24:01;5.38;;;1.30;;
16440;SDS011;8330;-33.858;151.184;2023-12-22T03:26:32;4.68;;;1.08;;
16440;SDS011;8330;-33.858;151.184;2023-12-22T03:29:02;2.30;;;0.80;;
16440;SDS011;8330;-33.858;151.184;2023-12-22T03:31:33;7.47;;;1.35;;
16440;SDS011;8330;-33.858;151.184;2023-12-22T03:34:04;4.63;;;1.00;;
16440;SDS011;8330;-33.858;151.184;2023-12-22T03:36:35;6.47;;;1.00;;
16440;SDS011;8330;-33.858;151.184;2023-12-22T03:39:07;4.72;;;1.08;;
16440;SDS011;8330;-33.858;151.184;2023-12-22T03:41:38;2.83;;;0.80;;
16440;SDS011;8330;-33.858;151.184;2023-12-22T03:44:09;5.00;;;1.45;;
16440;SDS011;8330;-33.858;151.184;2023-12-22T03:46:40;5.75;;;1.30;;
16440;SDS011;8330;-33.858;151.184;2023-12-22T03:49:10;4.45;;;1.30;;
16440;SDS011;8330;-33.858;151.184;2023-12-22T03:51:41;3.35;;;1.10;;
16440;SDS011;8330;-33.858;151.184;2023-12-22T03:54:14;3.25;;;0.88;;
16440;SDS011;8330;-33.858;151.184;2023-12-22T03:56:44;3.20;;;0.90;;
16440;SDS011;8330;-33.858;151.184;2023-12-22T03:59:15;5.00;;;1.23;;
16440;SDS011;8330;-33.858;151.184;2023-12-22T04:01:50;4.30;;;1.30;;
16440;SDS011;8330;-33.858;151.184;2023-12-22T04:04:21;2.97;;;1.00;;
16440;SDS011;8330;-33.858;151.184;2023-12-22T04:06:54;4.65;;;1.02;;
16440;SDS011;8330;-33.858;151.184;2023-12-22T04:09:26;3.25;;;0.77;;
16440;SDS011;8330;-33.858;151.184;2023-12-22T04:11:57;3.38;;;1.10;;
16440;SDS011;8330;-33.858;151.184;2023-12-22T04:14:28;4.43;;;1.45;;
16440;SDS011;8330;-33.858;151.184;2023-12-22T04:16:59;4.22;;;0.95;;
16440;SDS011;8330;-33.858;151.184;2023-12-22T04:19:30;5.05;;;1.10;;
16440;SDS011;8330;-33.858;151.184;2023-12-22T04:22:00;3.20;;;0.88;;
16440;SDS011;8330;-33.858;151.184;2023-12-22T04:24:33;3.13;;;1.10;;
16440;SDS011;8330;-33.858;151.184;2023-12-22T04:27:04;5.57;;;0.80;;
16440;SDS011;8330;-33.858;151.184;2023-12-22T04:29:34;5.20;;;1.02;;
16440;SDS011;8330;-33.858;151.184;2023-12-22T04:32:05;6.95;;;1.30;;
16440;SDS011;8330;-33.858;151.184;2023-12-22T04:34:36;4.57;;;1.02;;
16440;SDS011;8330;-33.858;151.184;2023-12-22T04:37:07;3.70;;;1.10;;
16440;SDS011;8330;-33.858;151.184;2023-12-22T04:39:39;3.40;;;0.75;;
16440;SDS011;8330;-33.858;151.184;2023-12-22T04:42:10;7.82;;;1.20;;
16440;SDS011;8330;-33.858;151.184;2023-12-22T04:44:41;2.92;;;1.13;;
16440;SDS011;8330;-33.858;151.184;2023-12-22T04:47:12;6.15;;;1.50;;
16440;SDS011;8330;-33.858;151.184;2023-12-22T04:49:44;5.15;;;1.13;;
16440;SDS011;8330;-33.858;151.184;2023-12-22T04:52:15;4.47;;;1.13;;
16440;SDS011;8330;-33.858;151.184;2023-12-22T04:54:48;4.75;;;1.35;;
16440;SDS011;8330;-33.858;151.184;2023-12-22T04:57:19;5.50;;;1.38;;
16440;SDS011;8330;-33.858;151.184;2023-12-22T04:59:50;4.70;;;1.20;;
16440;SDS011;8330;-33.858;151.184;2023-12-22T05:02:21;7.50;;;1.20;;
16440;SDS011;8330;-33.858;151.184;2023-12-22T05:04:52;6.13;;;1.27;;
16440;SDS011;8330;-33.858;151.184;2023-12-22T05:07:22;5.97;;;1.33;;
16440;SDS011;8330;-33.858;151.184;2023-12-22T05:09:55;5.68;;;1.15;;
16440;SDS011;8330;-33.858;151.184;2023-12-22T05:12:26;6.30;;;1.40;;
16440;SDS011;8330;-33.858;151.184;2023-12-22T05:14:57;5.95;;;1.48;;
16440;SDS011;8330;-33.858;151.184;2023-12-22T05:17:28;4.45;;;0.90;;
16440;SDS011;8330;-33.858;151.184;2023-12-22T05:19:59;5.40;;;1.30;;
16440;SDS011;8330;-33.858;151.184;2023-12-22T05:22:29;6.95;;;1.33;;
16440;SDS011;8330;-33.858;151.184;2023-12-22T05:25:02;3.85;;;1.30;;
16440;SDS011;8330;-33.858;151.184;2023-12-22T05:27:36;3.47;;;1.05;;
16440;SDS011;8330;-33.858;151.184;2023-12-22T05:30:09;5.32;;;1.40;;
16440;SDS011;8330;-33.858;151.184;2023-12-22T05:32:40;6.00;;;1.25;;
16440;SDS011;8330;-33.858;151.184;2023-12-22T05:35:11;4.63;;;1.38;;
16440;SDS011;8330;-33.858;151.184;2023-12-22T05:37:42;5.55;;;1.30;;
16440;SDS011;8330;-33.858;151.184;2023-12-22T05:40:16;6.10;;;1.55;;
16440;SDS011;8330;-33.858;151.184;2023-12-22T05:42:46;4.38;;;1.27;;
16440;SDS011;8330;-33.858;151.184;2023-12-22T05:45:17;9.20;;;1.40;;
16440;SDS011;8330;-33.858;151.184;2023-12-22T05:47:48;6.95;;;1.20;;
16440;SDS011;8330;-33.858;151.184;2023-12-22T05:50:19;3.75;;;0.80;;
16440;SDS011;8330;-33.858;151.184;2023-12-22T05:52:50;5.82;;;1.33;;
16440;SDS011;8330;-33.858;151.184;2023-12-22T05:55:22;6.05;;;1.10;;
16440;SDS011;8330;-33.858;151.184;2023-12-22T05:57:53;5.13;;;1.30;;
16440;SDS011;8330;-33.858;151.184;2023-12-22T06:00:24;4.00;;;1.13;;
16440;SDS011;8330;-33.858;151.184;2023-12-22T06:02:55;6.15;;;1.33;;
16440;SDS011;8330;-33.858;151.184;2023-12-22T06:05:25;3.80;;;1.25;;
16440;SDS011;8330;-33.858;151.184;2023-12-22T06:07:57;4.15;;;1.17;;
16440;SDS011;8330;-33.858;151.184;2023-12-22T06:10:30;2.67;;;1.00;;
16440;SDS011;8330;-33.858;151.184;2023-12-22T06:13:00;4.50;;;1.30;;
16440;SDS011;8330;-33.858;151.184;2023-12-22T06:15:31;6.18;;;1.48;;
16440;SDS011;8330;-33.858;151.184;2023-12-22T06:18:02;5.10;;;1.48;;
16440;SDS011;8330;-33.858;151.184;2023-12-22T06:20:33;5.28;;;1.42;;
16440;SDS011;8330;-33.858;151.184;2023-12-22T06:23:04;4.50;;;1.27;;
16440;SDS011;8330;-33.858;151.184;2023-12-22T06:25:37;5.70;;;1.20;;
16440;SDS011;8330;-33.858;151.184;2023-12-22T06:28:08;6.10;;;1.48;;
16440;SDS011;8330;-33.858;151.184;2023-12-22T06:30:39;4.35;;;1.38;;
16440;SDS011;8330;-33.858;151.184;2023-12-22T06:33:10;5.50;;;1.23;;
16440;SDS011;8330;-33.858;151.184;2023-12-22T06:35:40;4.68;;;1.50;;
16440;SDS011;8330;-33.858;151.184;2023-12-22T06:38:11;5.57;;;1.30;;
16440;SDS011;8330;-33.858;151.184;2023-12-22T06:40:44;6.63;;;1.23;;
16440;SDS011;8330;-33.858;151.184;2023-12-22T06:43:15;5.55;;;1.20;;
16440;SDS011;8330;-33.858;151.184;2023-12-22T06:45:46;4.43;;;1.20;;
16440;SDS011;8330;-33.858;151.184;2023-12-22T06:48:18;5.35;;;1.08;;
16440;SDS011;8330;-33.858;151.184;2023-12-22T06:50:48;6.78;;;1.30;;
16440;SDS011;8330;-33.858;151.184;2023-12-22T06:53:19;5.28;;;1.30;;
16440;SDS011;8330;-33.858;151.184;2023-12-22T06:55:52;4.88;;;1.27;;
16440;SDS011;8330;-33.858;151.184;2023-12-22T06:58:23;5.03;;;1.13;;
16440;SDS011;8330;-33.858;151.184;2023-12-22T07:00:54;3.15;;;1.33;;
16440;SDS011;8330;-33.858;151.184;2023-12-22T07:03:24;3.20;;;0.88;;
16440;SDS011;8330;-33.858;151.184;2023-12-22T07:05:55;5.90;;;1.20;;
16440;SDS011;8330;-33.858;151.184;2023-12-22T07:08:26;4.13;;;1.05;;
16440;SDS011;8330;-33.858;151.184;2023-12-22T07:10:59;7.53;;;1.83;;
16440;SDS011;8330;-33.858;151.184;2023-12-22T07:13:29;5.47;;;1.58;;
16440;SDS011;8330;-33.858;151.184;2023-12-22T07:16:00;5.53;;;1.10;;
16440;SDS011;8330;-33.858;151.184;2023-12-22T07:18:31;4.70;;;1.50;;
16440;SDS011;8330;-33.858;151.184;2023-12-22T07:21:02;3.17;;;1.02;;
16440;SDS011;8330;-33.858;151.184;2023-12-22T07:23:33;6.35;;;1.30;;
16440;SDS011;8330;-33.858;151.184;2023-12-22T07:26:06;6.72;;;1.90;;
16440;SDS011;8330;-33.858;151.184;2023-12-22T07:28:36;2.15;;;0.90;;
16440;SDS011;8330;-33.858;151.184;2023-12-22T07:31:07;8.88;;;1.30;;
16440;SDS011;8330;-33.858;151.184;2023-12-22T07:33:39;5.57;;;1.20;;
16440;SDS011;8330;-33.858;151.184;2023-12-22T07:36:10;4.07;;;1.23;;
16440;SDS011;8330;-33.858;151.184;2023-12-22T07:38:40;2.08;;;0.80;;
16440;SDS011;8330;-33.858;151.184;2023-12-22T07:41:13;8.35;;;1.27;;
16440;SDS011;8330;-33.858;151.184;2023-12-22T07:43:44;6.32;;;1.42;;
16440;SDS011;8330;-33.858;151.184;2023-12-22T07:46:18;3.85;;;1.20;;
16440;SDS011;8330;-33.858;151.184;2023-12-22T07:48:49;3.13;;;1.10;;
16440;SDS011;8330;-33.858;151.184;2023-12-22T07:51:20;4.10;;;1.35;;
16440;SDS011;8330;-33.858;151.184;2023-12-22T07:53:51;7.47;;;1.50;;
16440;SDS011;8330;-33.858;151.184;2023-12-22T07:56:24;4.03;;;1.50;;
16440;SDS011;8330;-33.858;151.184;2023-12-22T07:58:55;4.60;;;1.40;;
16440;SDS011;8330;-33.858;151.184;2023-12-22T08:01:29;4.63;;;1.50;;
16440;SDS011;8330;-33.858;151.184;2023-12-22T08:04:00;4.50;;;1.65;;
16440;SDS011;8330;-33.858;151.184;2023-12-22T08:06:31;4.88;;;1.63;;
16440;SDS011;8330;-33.858;151.184;2023-12-22T08:09:02;3.88;;;1.20;;
16440;SDS011;8330;-33.858;151.184;2023-12-22T08:11:35;4.47;;;1.42;;
16440;SDS011;8330;-33.858;151.184;2023-12-22T08:14:06;5.85;;;1.30;;
16440;SDS011;8330;-33.858;151.184;2023-12-22T08:16:38;5.22;;;1.25;;
16440;SDS011;8330;-33.858;151.184;2023-12-22T08:19:10;5.78;;;1.42;;
16440;SDS011;8330;-33.858;151.184;2023-12-22T08:21:42;5.47;;;1.40;;
16440;SDS011;8330;-33.858;151.184;2023-12-22T08:24:13;6.88;;;1.48;;
16440;SDS011;8330;-33.858;151.184;2023-12-22T08:26:47;6.47;;;1.60;;
16440;SDS011;8330;-33.858;151.184;2023-12-22T08:29:18;8.15;;;1.60;;
16440;SDS011;8330;-33.858;151.184;2023-12-22T08:31:50;5.82;;;1.42;;
16440;SDS011;8330;-33.858;151.184;2023-12-22T08:34:22;5.13;;;1.45;;
16440;SDS011;8330;-33.858;151.184;2023-12-22T08:36:53;7.47;;;1.80;;
16440;SDS011;8330;-33.858;151.184;2023-12-22T08:39:24;4.95;;;1.77;;
16440;SDS011;8330;-33.858;151.184;2023-12-22T08:41:57;5.03;;;1.30;;
16440;SDS011;8330;-33.858;151.184;2023-12-22T08:44:28;6.22;;;1.52;;
16440;SDS011;8330;-33.858;151.184;2023-12-22T08:46:59;4.90;;;1.52;;
16440;SDS011;8330;-33.858;151.184;2023-12-22T08:49:30;6.78;;;1.80;;
16440;SDS011;8330;-33.858;151.184;2023-12-22T08:52:01;5.18;;;1.45;;
16440;SDS011;8330;-33.858;151.184;2023-12-22T08:54:32;5.00;;;1.20;;
16440;SDS011;8330;-33.858;151.184;2023-12-22T08:57:07;6.80;;;1.50;;
16440;SDS011;8330;-33.858;151.184;2023-12-22T08:59:38;4.80;;;1.40;;
16440;SDS011;8330;-33.858;151.184;2023-12-22T09:02:09;6.13;;;1.40;;
16440;SDS011;8330;-33.858;151.184;2023-12-22T09:04:40;6.35;;;1.33;;
16440;SDS011;8330;-33.858;151.184;2023-12-22T09:07:11;6.72;;;1.40;;
16440;SDS011;8330;-33.858;151.184;2023-12-22T09:09:42;6.93;;;1.55;;
16440;SDS011;8330;-33.858;151.184;2023-12-22T09:12:16;6.03;;;1.77;;
16440;SDS011;8330;-33.858;151.184;2023-12-22T09:14:47;7.03;;;1.52;;
16440;SDS011;8330;-33.858;151.184;2023-12-22T09:17:19;6.07;;;1.70;;
16440;SDS011;8330;-33.858;151.184;2023-12-22T09:19:50;8.77;;;1.92;;
16440;SDS011;8330;-33.858;151.184;2023-12-22T09:22:21;9.50;;;1.70;;
16440;SDS011;8330;-33.858;151.184;2023-12-22T09:24:52;6.00;;;1.52;;
16440;SDS011;8330;-33.858;151.184;2023-12-22T09:27:26;8.82;;;1.40;;
16440;SDS011;8330;-33.858;151.184;2023-12-22T09:29:57;6.97;;;1.60;;
16440;SDS011;8330;-33.858;151.184;2023-12-22T09:32:29;6.80;;;1.92;;
16440;SDS011;8330;-33.858;151.184;2023-12-22T09:35:00;5.38;;;1.55;;
16440;SDS011;8330;-33.858;151.184;2023-12-22T09:37:32;5.45;;;1.85;;
16440;SDS011;8330;-33.858;151.184;2023-12-22T09:40:03;7.65;;;2.08;;
16440;SDS011;8330;-33.858;151.184;2023-12-22T09:42:38;7.22;;;2.20;;
16440;SDS011;8330;-33.858;151.184;2023-12-22T09:45:12;6.50;;;1.85;;
16440;SDS011;8330;-33.858;151.184;2023-12-22T09:47:45;9.88;;;1.85;;
16440;SDS011;8330;-33.858;151.184;2023-12-22T09:50:17;7.40;;;2.30;;
16440;SDS011;8330;-33.858;151.184;2023-12-22T09:52:49;7.50;;;1.90;;
16440;SDS011;8330;-33.858;151.184;2023-12-22T09:55:20;5.13;;;1.67;;
16440;SDS011;8330;-33.858;151.184;2023-12-22T09:57:54;7.55;;;1.67;;
16440;SDS011;8330;-33.858;151.184;2023-12-22T10:00:27;5.38;;;1.40;;
16440;SDS011;8330;-33.858;151.184;2023-12-22T10:03:00;8.40;;;1.73;;
16440;SDS011;8330;-33.858;151.184;2023-12-22T10:05:32;7.93;;;2.00;;
16440;SDS011;8330;-33.858;151.184;2023-12-22T10:08:03;7.13;;;1.98;;
16440;SDS011;8330;-33.858;151.184;2023-12-22T10:10:36;5.70;;;1.90;;
16440;SDS011;8330;-33.858;151.184;2023-12-22T10:13:11;5.47;;;1.42;;
16440;SDS011;8330;-33.858;151.184;2023-12-22T10:15:42;7.40;;;1.60;;
16440;SDS011;8330;-33.858;151.184;2023-12-22T10:18:15;7.45;;;1.88;;
16440;SDS011;8330;-33.858;151.184;2023-12-22T10:20:46;9.95;;;1.77;;
16440;SDS011;8330;-33.858;151.184;2023-12-22T10:23:17;6.32;;;1.50;;
16440;SDS011;8330;-33.858;151.184;2023-12-22T10:25:48;8.10;;;1.60;;
16440;SDS011;8330;-33.858;151.184;2023-12-22T10:28:22;6.97;;;1.70;;
16440;SDS011;8330;-33.858;151.184;2023-12-22T10:30:56;9.00;;;2.00;;
16440;SDS011;8330;-33.858;151.184;2023-12-22T10:33:32;8.40;;;1.60;;
16440;SDS011;8330;-33.858;151.184;2023-12-22T10:36:04;6.43;;;1.73;;
16440;SDS011;8330;-33.858;151.184;2023-12-22T10:38:38;8.05;;;1.85;;
16440;SDS011;8330;-33.858;151.184;2023-12-22T10:41:11;12.05;;;1.90;;
16440;SDS011;8330;-33.858;151.184;2023-12-22T10:43:44;9.43;;;1.50;;
16440;SDS011;8330;-33.858;151.184;2023-12-22T10:46:16;9.00;;;1.70;;
16440;SDS011;8330;-33.858;151.184;2023-12-22T10:48:47;9.63;;;1.73;;
16440;SDS011;8330;-33.858;151.184;2023-12-22T10:51:21;8.98;;;1.70;;
16440;SDS011;8330;-33.858;151.184;2023-12-22T10:53:58;6.25;;;1.38;;
16440;SDS011;8330;-33.858;151.184;2023-12-22T10:56:29;8.18;;;1.60;;
16440;SDS011;8330;-33.858;151.184;2023-12-22T10:59:03;6.63;;;1.40;;
16440;SDS011;8330;-33.858;151.184;2023-12-22T11:01:35;4.32;;;1.40;;
16440;SDS011;8330;-33.858;151.184;2023-12-22T11:04:06;6.30;;;1.63;;
16440;SDS011;8330;-33.858;151.184;2023-12-22T11:06:38;7.78;;;1.48;;
16440;SDS011;8330;-33.858;151.184;2023-12-22T11:09:10;7.28;;;1.65;;
16440;SDS011;8330;-33.858;151.184;2023-12-22T11:11:44;8.23;;;1.80;;
16440;SDS011;8330;-33.858;151.184;2023-12-22T11:14:18;7.85;;;1.55;;
16440;SDS011;8330;-33.858;151.184;2023-12-22T11:16:50;5.60;;;1.27;;
16440;SDS011;8330;-33.858;151.184;2023-12-22T11:19:23;10.85;;;1.60;;
16440;SDS011;8330;-33.858;151.184;2023-12-22T11:21:56;8.35;;;1.63;;
16440;SDS011;8330;-33.858;151.184;2023-12-22T11:24:29;8.93;;;1.58;;
16440;SDS011;8330;-33.858;151.184;2023-12-22T11:27:03;8.15;;;1.98;;
16440;SDS011;8330;-33.858;151.184;2023-12-22T11:29:37;6.78;;;1.30;;
16440;SDS011;8330;-33.858;151.184;2023-12-22T11:32:10;8.50;;;1.50;;
16440;SDS011;8330;-33.858;151.184;2023-12-22T11:34:44;4.85;;;1.30;;
16440;SDS011;8330;-33.858;151.184;2023-12-22T11:37:15;8.50;;;1.70;;
16440;SDS011;8330;-33.858;151.184;2023-12-22T11:39:47;5.00;;;1.45;;
16440;SDS011;8330;-33.858;151.184;2023-12-22T11:42:19;8.02;;;1.75;;
16440;SDS011;8330;-33.858;151.184;2023-12-22T11:44:56;5.07;;;1.35;;
16440;SDS011;8330;-33.858;151.184;2023-12-22T11:47:27;11.00;;;1.83;;
16440;SDS011;8330;-33.858;151.184;2023-12-22T11:49:59;6.90;;;1.60;;
16440;SDS011;8330;-33.858;151.184;2023-12-22T11:52:30;6.20;;;1.33;;
16440;SDS011;8330;-33.858;151.184;2023-12-22T11:55:01;5.28;;;1.27;;
16440;SDS011;8330;-33.858;151.184;2023-12-22T11:57:33;8.07;;;1.30;;
16440;SDS011;8330;-33.858;151.184;2023-12-22T12:00:09;8.10;;;1.50;;
16440;SDS011;8330;-33.858;151.184;2023-12-22T12:03:08;7.22;;;1.52;;
16440;SDS011;8330;-33.858;151.184;2023-12-22T12:05:41;5.57;;;1.40;;
16440;SDS011;8330;-33.858;151.184;2023-12-22T12:08:12;5.97;;;1.25;;
16440;SDS011;8330;-33.858;151.184;2023-12-22T12:10:52;6.45;;;2.03;;
16440;SDS011;8330;-33.858;151.184;2023-12-22T12:13:25;4.45;;;1.15;;
16440;SDS011;8330;-33.858;151.184;2023-12-22T12:16:00;3.08;;;1.00;;
16440;SDS011;8330;-33.858;151.184;2023-12-22T12:18:32;6.07;;;1.20;;
16440;SDS011;8330;-33.858;151.184;2023-12-22T12:21:03;5.85;;;1.40;;
16440;SDS011;8330;-33.858;151.184;2023-12-22T12:23:36;7.03;;;1.42;;
16440;SDS011;8330;-33.858;151.184;2023-12-22T12:26:09;7.13;;;1.63;;
16440;SDS011;8330;-33.858;151.184;2023-12-22T12:28:44;7.28;;;1.50;;
16440;SDS011;8330;-33.858;151.184;2023-12-22T12:31:17;5.20;;;1.50;;
16440;SDS011;8330;-33.858;151.184;2023-12-22T12:34:04;5.88;;;1.55;;
16440;SDS011;8330;-33.858;151.184;2023-12-22T12:36:35;5.90;;;1.27;;
16440;SDS011;8330;-33.858;151.184;2023-12-22T12:39:06;7.32;;;1.48;;
16440;SDS011;8330;-33.858;151.184;2023-12-22T12:41:40;5.95;;;1.40;;
16440;SDS011;8330;-33.858;151.184;2023-12-22T12:44:12;5.75;;;1.27;;
16440;SDS011;8330;-33.858;151.184;2023-12-22T12:46:45;7.75;;;1.65;;
16440;SDS011;8330;-33.858;151.184;2023-12-22T12:49:16;6.80;;;2.50;;
16440;SDS011;8330;-33.858;151.184;2023-12-22T12:51:47;6.85;;;2.58;;
16440;SDS011;8330;-33.858;151.184;2023-12-22T12:54:19;5.13;;;1.70;;
16440;SDS011;8330;-33.858;151.184;2023-12-22T12:56:50;7.80;;;1.92;;
16440;SDS011;8330;-33.858;151.184;2023-12-22T12:59:20;5.22;;;1.38;;
16440;SDS011;8330;-33.858;151.184;2023-12-22T13:01:53;9.32;;;1.95;;
16440;SDS011;8330;-33.858;151.184;2023-12-22T13:04:36;5.05;;;1.58;;
16440;SDS011;8330;-33.858;151.184;2023-12-22T13:07:07;6.47;;;1.35;;
16440;SDS011;8330;-33.858;151.184;2023-12-22T13:09:39;4.45;;;1.25;;
16440;SDS011;8330;-33.858;151.184;2023-12-22T13:12:12;4.30;;;1.50;;
16440;SDS011;8330;-33.858;151.184;2023-12-22T13:14:44;6.78;;;1.80;;
16440;SDS011;8330;-33.858;151.184;2023-12-22T13:17:16;4.88;;;1.60;;
16440;SDS011;8330;-33.858;151.184;2023-12-22T13:19:47;6.20;;;1.48;;
16440;SDS011;8330;-33.858;151.184;2023-12-22T13:22:18;6.05;;;1.48;;
16440;SDS011;8330;-33.858;151.184;2023-12-22T13:24:55;9.30;;;1.98;;
16440;SDS011;8330;-33.858;151.184;2023-12-22T13:27:26;12.65;;;2.28;;
16440;SDS011;8330;-33.858;151.184;2023-12-22T13:29:57;9.60;;;2.17;;
16440;SDS011;8330;-33.858;151.184;2023-12-22T13:32:30;13.65;;;2.10;;
16440;SDS011;8330;-33.858;151.184;2023-12-22T13:35:01;10.27;;;2.22;;
16440;SDS011;8330;-33.858;151.184;2023-12-22T13:37:32;6.78;;;1.80;;
16440;SDS011;8330;-33.858;151.184;2023-12-22T13:40:06;11.10;;;1.90;;
16440;SDS011;8330;-33.858;151.184;2023-12-22T13:42:38;7.05;;;1.95;;
16440;SDS011;8330;-33.858;151.184;2023-12-22T13:45:10;11.68;;;2.08;;
16440;SDS011;8330;-33.858;151.184;2023-12-22T13:47:43;8.43;;;1.90;;
16440;SDS011;8330;-33.858;151.184;2023-12-22T13:50:15;8.27;;;1.70;;
16440;SDS011;8330;-33.858;151.184;2023-12-22T13:52:45;10.00;;;1.77;;
16440;SDS011;8330;-33.858;151.184;2023-12-22T13:55:17;7.60;;;1.50;;
16440;SDS011;8330;-33.858;151.184;2023-12-22T13:57:48;7.40;;;2.20;;
16440;SDS011;8330;-33.858;151.184;2023-12-22T14:00:28;7.90;;;2.08;;
16440;SDS011;8330;-33.858;151.184;2023-12-22T14:03:01;5.13;;;1.48;;
16440;SDS011;8330;-33.858;151.184;2023-12-22T14:05:32;6.72;;;1.65;;
16440;SDS011;8330;-33.858;151.184;2023-12-22T14:08:03;7.00;;;1.60;;
16440;SDS011;8330;-33.858;151.184;2023-12-22T14:10:34;6.70;;;1.40;;
16440;SDS011;8330;-33.858;151.184;2023-12-22T14:13:05;5.75;;;1.58;;
16440;SDS011;8330;-33.858;151.184;2023-12-22T14:15:36;7.22;;;1.42;;
16440;SDS011;8330;-33.858;151.184;2023-12-22T14:18:09;7.28;;;1.42;;
16440;SDS011;8330;-33.858;151.184;2023-12-22T14:20:39;9.30;;;1.52;;
16440;SDS011;8330;-33.858;151.184;2023-12-22T14:23:12;10.60;;;1.90;;
16440;SDS011;8330;-33.858;151.184;2023-12-22T14:25:43;6.60;;;1.48;;
16440;SDS011;8330;-33.858;151.184;2023-12-22T14:28:14;8.45;;;1.52;;
16440;SDS011;8330;-33.858;151.184;2023-12-22T14:30:45;6.55;;;1.90;;
16440;SDS011;8330;-33.858;151.184;2023-12-22T14:33:18;9.07;;;2.00;;
16440;SDS011;8330;-33.858;151.184;2023-12-22T14:35:48;7.25;;;1.65;;
16440;SDS011;8330;-33.858;151.184;2023-12-22T14:38:19;7.15;;;1.73;;
16440;SDS011;8330;-33.858;151.184;2023-12-22T14:40:50;7.32;;;1.70;;
16440;SDS011;8330;-33.858;151.184;2023-12-22T14:43:21;9.85;;;1.85;;
16440;SDS011;8330;-33.858;151.184;2023-12-22T14:45:51;7.20;;;1.75;;
16440;SDS011;8330;-33.858;151.184;2023-12-22T14:48:24;10.35;;;2.17;;